createdAt,value
2019-03-27T00:01:16.369Z,15.30
2019-03-27T00:03:48.923Z,15.75
2019-03-27T00:06:21.962Z,15.98
2019-03-27T00:08:53.855Z,16.01
2019-03-27T00:11:29.778Z,16.09
2019-03-27T00:14:03.831Z,16.04
2019-03-27T00:16:37.761Z,16.06
2019-03-27T00:19:09.260Z,16.13
2019-03-27T00:21:40.138Z,16.15
2019-03-27T00:24:12.912Z,16.17
2019-03-27T00:26:47.384Z,16.19
2019-03-27T00:29:18.942Z,16.18
2019-03-27T00:31:49.813Z,16.17
2019-03-27T00:34:24.113Z,16.13
2019-03-27T00:36:56.962Z,16.01
2019-03-27T00:39:29.781Z,16.00
2019-03-27T00:42:02.797Z,16.06
2019-03-27T00:44:34.574Z,15.86
2019-03-27T00:47:07.214Z,15.79
2019-03-27T00:49:39.282Z,15.63
2019-03-27T00:52:11.377Z,15.80
2019-03-27T00:54:44.167Z,15.77
2019-03-27T00:57:18.087Z,15.82
2019-03-27T00:59:49.607Z,15.90
2019-03-27T01:02:22.786Z,15.93
2019-03-27T01:04:56.322Z,16.02
2019-03-27T01:07:29.344Z,16.09
2019-03-27T01:10:02.628Z,16.08
2019-03-27T01:12:37.866Z,16.04
2019-03-27T01:15:14.518Z,15.89
2019-03-27T01:17:50.978Z,15.83
2019-03-27T01:20:23.536Z,15.98
2019-03-27T01:22:55.977Z,15.82
2019-03-27T01:25:28.015Z,15.96
2019-03-27T01:28:05.916Z,16.00
2019-03-27T01:30:40.868Z,16.05
2019-03-27T01:33:14.412Z,16.09
2019-03-27T01:35:45.803Z,16.13
2019-03-27T01:38:21.091Z,16.05
2019-03-27T01:40:56.950Z,15.99
2019-03-27T01:43:28.530Z,16.01
2019-03-27T01:46:00.927Z,16.00
2019-03-27T01:48:34.975Z,15.86
2019-03-27T01:51:06.778Z,16.00
2019-03-27T01:53:38.533Z,16.04
2019-03-27T01:56:11.111Z,16.03
2019-03-27T01:58:43.467Z,16.02
2019-03-27T02:01:14.198Z,16.11
2019-03-27T02:03:45.079Z,16.13
2019-03-27T02:06:17.427Z,16.14
2019-03-27T02:08:50.526Z,16.15
2019-03-27T02:11:23.622Z,16.14
2019-03-27T02:13:55.746Z,15.74
2019-03-27T02:16:27.887Z,15.96
2019-03-27T02:19:01.362Z,15.71
2019-03-27T02:21:32.886Z,15.64
2019-03-27T02:24:05.204Z,15.73
2019-03-27T02:26:37.924Z,15.82
2019-03-27T02:29:10.673Z,15.81
2019-03-27T02:31:42.866Z,15.68
2019-03-27T02:34:19.131Z,15.83
2019-03-27T02:37:00.050Z,15.85
2019-03-27T02:39:35.992Z,15.90
2019-03-27T02:42:10.537Z,15.97
2019-03-27T02:44:43.761Z,15.91
2019-03-27T02:47:15.758Z,15.87
2019-03-27T02:49:53.309Z,15.95
2019-03-27T02:52:26.488Z,15.75
2019-03-27T02:55:07.640Z,15.82
2019-03-27T02:57:47.641Z,15.56
2019-03-27T03:00:25.780Z,15.64
2019-03-27T03:03:03.221Z,15.69
2019-03-27T03:05:39.004Z,15.80
2019-03-27T03:08:11.841Z,15.77
2019-03-27T03:10:48.322Z,15.66
2019-03-27T03:13:25.305Z,15.59
2019-03-27T03:15:58.097Z,15.50
2019-03-27T03:18:31.200Z,15.44
2019-03-27T03:21:06.810Z,15.50
2019-03-27T03:23:39.961Z,15.53
2019-03-27T03:26:11.701Z,15.57
2019-03-27T03:28:42.938Z,15.60
2019-03-27T03:31:16.187Z,15.55
2019-03-27T03:33:47.496Z,15.55
2019-03-27T03:36:23.922Z,15.52
2019-03-27T03:38:58.226Z,15.51
2019-03-27T03:41:31.973Z,15.57
2019-03-27T03:44:05.652Z,15.53
2019-03-27T03:46:39.895Z,15.54
2019-03-27T03:49:11.896Z,15.38
2019-03-27T03:51:44.726Z,15.47
2019-03-27T03:54:16.316Z,15.49
2019-03-27T03:56:52.652Z,15.50
2019-03-27T03:59:28.922Z,15.48
2019-03-27T04:02:07.644Z,15.50
2019-03-27T04:04:45.777Z,15.47
2019-03-27T04:07:19.143Z,15.43
2019-03-27T04:09:53.033Z,15.49
2019-03-27T04:12:27.331Z,15.42
2019-03-27T04:15:02.505Z,14.98
2019-03-27T04:17:35.449Z,15.05
2019-03-27T04:20:07.926Z,15.20
2019-03-27T04:22:39.070Z,15.28
2019-03-27T04:25:11.019Z,15.02
2019-03-27T04:27:42.210Z,15.28
2019-03-27T04:30:13.083Z,15.35
2019-03-27T04:32:45.192Z,15.37
2019-03-27T04:35:19.860Z,15.08
2019-03-27T04:37:53.604Z,15.26
2019-03-27T04:40:25.593Z,15.38
2019-03-27T04:42:57.185Z,15.41
2019-03-27T04:45:30.487Z,15.35
2019-03-27T04:48:02.913Z,15.36
2019-03-27T04:50:34.821Z,15.20
2019-03-27T04:53:05.899Z,15.27
2019-03-27T04:55:38.703Z,15.29
2019-03-27T04:58:09.610Z,15.30
2019-03-27T05:00:40.873Z,15.36
2019-03-27T05:03:13.998Z,15.32
2019-03-27T05:05:46.725Z,15.34
2019-03-27T05:08:17.750Z,15.29
2019-03-27T05:10:48.851Z,15.20
2019-03-27T05:13:20.172Z,15.08
2019-03-27T05:15:51.830Z,15.11
2019-03-27T05:18:23.902Z,15.22
2019-03-27T05:20:55.018Z,15.15
2019-03-27T05:23:26.776Z,15.10
2019-03-27T05:25:57.956Z,14.97
2019-03-27T05:28:29.548Z,15.02
2019-03-27T05:31:00.648Z,15.06
2019-03-27T05:33:34.741Z,15.11
2019-03-27T05:36:06.508Z,15.11
2019-03-27T05:38:41.681Z,15.11
2019-03-27T05:41:16.452Z,15.16
2019-03-27T05:43:49.122Z,15.15
2019-03-27T05:46:26.466Z,15.22
2019-03-27T05:49:06.729Z,15.00
2019-03-27T05:51:38.674Z,15.08
2019-03-27T05:54:13.621Z,14.99
2019-03-27T05:56:47.279Z,14.80
2019-03-27T05:59:22.789Z,14.95
2019-03-27T06:01:56.509Z,14.85
2019-03-27T06:04:29.666Z,15.03
2019-03-27T06:07:03.757Z,15.06
2019-03-27T06:09:35.228Z,15.13
2019-03-27T06:12:06.269Z,15.06
2019-03-27T06:14:37.236Z,15.12
2019-03-27T06:17:07.919Z,15.03
2019-03-27T06:19:39.160Z,14.88
2019-03-27T06:22:10.011Z,15.06
2019-03-27T06:24:40.732Z,15.26
2019-03-27T06:27:11.423Z,15.34
2019-03-27T06:29:43.766Z,15.35
2019-03-27T06:32:14.488Z,15.40
2019-03-27T06:34:46.577Z,15.50
2019-03-27T06:37:19.056Z,15.41
2019-03-27T06:39:50.554Z,15.20
2019-03-27T06:42:21.248Z,15.30
2019-03-27T06:44:51.975Z,15.18
2019-03-27T06:47:23.801Z,15.28
2019-03-27T06:49:57.433Z,15.31
2019-03-27T06:52:28.153Z,15.42
2019-03-27T06:54:59.328Z,15.39
2019-03-27T06:57:30.037Z,15.17
2019-03-27T07:00:01.303Z,15.44
2019-03-27T07:02:32.342Z,15.47
2019-03-27T07:05:03.912Z,15.47
2019-03-27T07:07:34.620Z,15.49
2019-03-27T07:10:06.486Z,15.52
2019-03-27T07:12:37.310Z,15.55
2019-03-27T07:15:08.764Z,15.74
2019-03-27T07:17:39.470Z,15.73
2019-03-27T07:20:11.391Z,15.72
2019-03-27T07:22:42.119Z,15.94
2019-03-27T07:25:12.972Z,15.96
2019-03-27T07:27:43.670Z,16.06
2019-03-27T07:30:15.312Z,16.11
2019-03-27T07:32:46.010Z,15.99
2019-03-27T07:35:18.056Z,16.00
2019-03-27T07:37:48.777Z,16.09
2019-03-27T07:40:20.148Z,16.21
2019-03-27T07:42:50.856Z,16.26
2019-03-27T07:45:21.603Z,16.34
2019-03-27T07:47:53.319Z,16.18
2019-03-27T07:50:25.738Z,15.96
2019-03-27T07:52:56.463Z,15.83
2019-03-27T07:55:27.321Z,15.60
2019-03-27T07:57:58.027Z,15.61
2019-03-27T08:00:29.324Z,15.27
2019-03-27T08:03:00.045Z,15.52
2019-03-27T08:05:32.208Z,15.63
2019-03-27T08:08:02.922Z,15.45
2019-03-27T08:10:34.184Z,15.77
2019-03-27T08:13:04.916Z,15.93
2019-03-27T08:15:35.760Z,15.88
2019-03-27T08:18:06.615Z,16.13
2019-03-27T08:20:39.072Z,16.20
2019-03-27T08:23:09.862Z,15.50
2019-03-27T08:25:40.602Z,16.03
2019-03-27T08:28:11.304Z,16.13
2019-03-27T08:30:42.577Z,16.25
2019-03-27T08:33:13.274Z,16.39
2019-03-27T08:35:45.241Z,16.43
2019-03-27T08:38:15.967Z,16.38
2019-03-27T08:40:47.308Z,16.18
2019-03-27T08:43:21.392Z,16.16
2019-03-27T08:45:50.577Z,15.98
2019-03-27T08:48:22.374Z,16.29
2019-03-27T08:50:54.056Z,15.97
2019-03-27T08:53:24.781Z,16.36
2019-03-27T08:55:55.618Z,16.64
2019-03-27T08:58:26.350Z,15.79
2019-03-27T09:00:57.599Z,15.66
2019-03-27T09:03:28.317Z,16.07
2019-03-27T09:05:59.868Z,16.43
2019-03-27T09:08:30.664Z,15.93
2019-03-27T09:11:04.471Z,16.39
2019-03-27T09:13:34.284Z,16.32
2019-03-27T09:16:05.014Z,16.68
2019-03-27T09:18:36.063Z,16.64
2019-03-27T09:21:08.106Z,17.00
2019-03-27T09:23:39.217Z,16.90
2019-03-27T09:26:10.386Z,17.20
2019-03-27T09:28:41.105Z,17.30
2019-03-27T09:31:13.798Z,17.44
2019-03-27T09:33:44.506Z,17.61
2019-03-27T09:36:16.705Z,17.73
2019-03-27T09:38:47.390Z,17.36
2019-03-27T09:41:21.310Z,17.75
2019-03-27T09:43:51.190Z,17.81
2019-03-27T09:46:22.039Z,17.83
2019-03-27T09:48:53.345Z,17.51
2019-03-27T09:51:25.777Z,18.05
2019-03-27T09:53:56.473Z,18.36
2019-03-27T09:56:27.227Z,18.31
2019-03-27T09:58:58.022Z,17.26
2019-03-27T10:01:29.399Z,17.83
2019-03-27T10:04:00.516Z,18.21
2019-03-27T10:06:31.878Z,17.99
2019-03-27T10:09:03.211Z,18.58
2019-03-27T10:11:34.375Z,18.83
2019-03-27T10:14:05.601Z,18.77
2019-03-27T10:16:36.427Z,19.27
2019-03-27T10:19:07.163Z,19.68
2019-03-27T10:21:39.267Z,19.86
2019-03-27T10:24:09.964Z,19.21
2019-03-27T10:26:42.812Z,19.75
2019-03-27T10:29:13.702Z,19.69
2019-03-27T10:31:44.441Z,19.32
2019-03-27T10:34:15.194Z,19.32
2019-03-27T10:36:46.961Z,18.37
2019-03-27T10:39:17.684Z,18.07
2019-03-27T10:41:48.425Z,17.86
2019-03-27T10:44:19.144Z,18.53
2019-03-27T10:46:50.411Z,18.29
2019-03-27T10:49:22.604Z,18.66
2019-03-27T10:51:54.652Z,18.15
2019-03-27T10:54:25.407Z,17.84
2019-03-27T10:56:56.959Z,18.36
2019-03-27T10:59:27.650Z,18.24
2019-03-27T11:01:58.403Z,18.52
2019-03-27T11:04:29.115Z,18.61
2019-03-27T11:07:01.800Z,18.91
2019-03-27T11:09:32.635Z,18.96
2019-03-27T11:12:03.403Z,19.06
2019-03-27T11:14:38.137Z,19.17
2019-03-27T11:17:06.952Z,18.91
2019-03-27T11:19:37.655Z,18.74
2019-03-27T11:22:09.725Z,19.12
2019-03-27T11:24:40.433Z,19.03
2019-03-27T11:27:12.121Z,18.27
2019-03-27T11:29:42.830Z,19.06
2019-03-27T11:32:13.670Z,19.05
2019-03-27T11:34:44.407Z,19.45
2019-03-27T11:37:16.946Z,20.35
2019-03-27T11:39:47.643Z,20.48
2019-03-27T11:42:18.417Z,20.95
2019-03-27T11:44:49.109Z,20.47
2019-03-27T11:47:20.358Z,19.78
2019-03-27T11:49:52.386Z,19.75
2019-03-27T11:52:24.171Z,19.77
2019-03-27T11:54:54.859Z,20.05
2019-03-27T11:57:26.462Z,19.10
2019-03-27T11:59:57.154Z,18.62
2019-03-27T12:02:27.870Z,19.30
2019-03-27T12:04:58.575Z,19.86
2019-03-27T12:07:32.362Z,19.97
2019-03-27T12:10:04.614Z,20.01
2019-03-27T12:12:35.351Z,20.02
2019-03-27T12:15:07.744Z,19.55
2019-03-27T12:17:39.010Z,19.36
2019-03-27T12:20:09.918Z,19.20
2019-03-27T12:22:41.948Z,19.18
2019-03-27T12:25:12.658Z,19.36
2019-03-27T12:27:44.236Z,19.31
2019-03-27T12:30:15.314Z,19.06
2019-03-27T12:32:46.032Z,19.51
2019-03-27T12:35:16.766Z,19.44
2019-03-27T12:37:49.402Z,19.60
2019-03-27T12:40:20.117Z,19.46
2019-03-27T12:42:50.960Z,19.61
2019-03-27T12:45:21.672Z,19.84
2019-03-27T12:47:52.866Z,20.11
2019-03-27T12:50:24.258Z,19.86
2019-03-27T12:52:56.368Z,20.20
2019-03-27T12:55:27.081Z,20.05
2019-03-27T12:57:58.664Z,20.16
2019-03-27T13:00:29.384Z,20.51
2019-03-27T13:03:00.131Z,20.83
2019-03-27T13:05:30.853Z,20.93
2019-03-27T13:08:02.527Z,21.29
2019-03-27T13:10:33.240Z,21.42
2019-03-27T13:13:04.196Z,21.65
2019-03-27T13:15:34.928Z,21.70
2019-03-27T13:18:06.410Z,21.56
2019-03-27T13:20:37.133Z,22.24
2019-03-27T13:23:08.481Z,22.25
2019-03-27T13:25:39.206Z,22.85
2019-03-27T13:28:10.495Z,24.07
2019-03-27T13:30:41.202Z,26.11
2019-03-27T13:33:11.927Z,27.84
2019-03-27T13:35:42.622Z,29.38
2019-03-27T13:38:15.210Z,27.90
2019-03-27T13:40:45.901Z,29.41
2019-03-27T13:43:16.714Z,28.90
2019-03-27T13:45:47.415Z,27.70
2019-03-27T13:48:18.668Z,26.91
2019-03-27T13:50:50.966Z,26.10
2019-03-27T13:53:22.600Z,25.03
2019-03-27T13:55:53.319Z,24.44
2019-03-27T13:58:24.643Z,23.35
2019-03-27T14:00:55.355Z,23.10
2019-03-27T14:03:26.421Z,22.98
2019-03-27T14:05:57.127Z,22.69
2019-03-27T14:08:29.399Z,22.29
2019-03-27T14:11:00.132Z,22.23
2019-03-27T14:13:30.817Z,22.10
2019-03-27T14:16:01.503Z,21.84
2019-03-27T14:18:32.675Z,21.53
2019-03-27T14:21:04.381Z,21.45
2019-03-27T14:23:36.722Z,21.22
2019-03-27T14:26:07.641Z,21.23
2019-03-27T14:28:38.797Z,21.24
2019-03-27T14:31:09.520Z,21.46
2019-03-27T14:33:40.359Z,21.35
2019-03-27T14:36:10.972Z,21.74
2019-03-27T14:38:42.546Z,22.32
2019-03-27T14:41:13.241Z,23.67
2019-03-27T14:43:43.943Z,24.84
2019-03-27T14:46:15.855Z,25.75
2019-03-27T14:48:47.075Z,27.65
2019-03-27T14:51:19.252Z,28.78
2019-03-27T14:53:50.915Z,28.74
2019-03-27T14:56:21.632Z,28.47
2019-03-27T14:58:52.741Z,29.35
2019-03-27T15:01:23.430Z,28.96
2019-03-27T15:03:54.170Z,30.07
2019-03-27T15:06:24.894Z,30.47
2019-03-27T15:08:57.038Z,30.91
2019-03-27T15:11:27.728Z,31.19
2019-03-27T15:13:58.451Z,31.20
2019-03-27T15:16:29.176Z,30.45
2019-03-27T15:19:00.324Z,30.83
2019-03-27T15:21:31.021Z,31.11
2019-03-27T15:24:02.192Z,30.60
2019-03-27T15:26:32.876Z,29.73
2019-03-27T15:29:04.062Z,29.08
2019-03-27T15:31:34.799Z,28.11
2019-03-27T15:34:05.501Z,27.43
2019-03-27T15:36:36.206Z,26.46
2019-03-27T15:39:10.262Z,25.97
2019-03-27T15:41:41.030Z,25.87
2019-03-27T15:44:11.798Z,25.36
2019-03-27T15:46:42.511Z,25.10
2019-03-27T15:49:13.996Z,24.42
2019-03-27T15:51:46.318Z,24.37
2019-03-27T15:54:18.041Z,23.75
2019-03-27T15:56:48.746Z,23.27
2019-03-27T15:59:19.954Z,23.12
2019-03-27T16:01:50.654Z,22.77
2019-03-27T16:04:21.719Z,22.70
2019-03-27T16:06:52.466Z,22.49
2019-03-27T16:09:24.201Z,22.16
2019-03-27T16:11:54.921Z,21.99
2019-03-27T16:14:25.638Z,21.74
2019-03-27T16:17:12.292Z,21.38
2019-03-27T16:19:29.322Z,21.54
2019-03-27T16:22:00.068Z,21.54
2019-03-27T16:24:32.604Z,21.43
2019-03-27T16:27:04.848Z,21.25
2019-03-27T16:29:37.244Z,20.89
2019-03-27T16:32:08.034Z,20.90
2019-03-27T16:34:38.852Z,20.74
2019-03-27T16:37:09.590Z,20.53
2019-03-27T16:39:42.213Z,20.65
2019-03-27T16:42:12.951Z,20.49
2019-03-27T16:44:43.698Z,20.40
2019-03-27T16:47:14.415Z,20.19
2019-03-27T16:49:45.746Z,20.23
2019-03-27T16:52:18.470Z,20.08
2019-03-27T16:54:50.885Z,20.13
2019-03-27T16:57:21.619Z,19.94
2019-03-27T16:59:53.185Z,19.80
2019-03-27T17:02:23.894Z,20.00
2019-03-27T17:04:54.642Z,19.68
2019-03-27T17:07:25.402Z,19.57
2019-03-27T17:09:57.842Z,19.59
2019-03-27T17:12:31.359Z,19.70
2019-03-27T17:15:01.069Z,19.77
2019-03-27T17:17:31.801Z,19.63
2019-03-27T17:20:03.021Z,19.70
2019-03-27T17:22:33.731Z,19.70
2019-03-27T17:25:05.176Z,19.65
2019-03-27T17:27:35.905Z,19.61
2019-03-27T17:30:08.317Z,19.37
2019-03-27T17:32:39.024Z,18.99
2019-03-27T17:35:09.757Z,19.21
2019-03-27T17:37:40.464Z,19.32
2019-03-27T17:40:13.510Z,19.24
2019-03-27T17:42:44.246Z,19.13
2019-03-27T17:45:14.975Z,19.15
2019-03-27T17:47:45.736Z,19.18
2019-03-27T17:50:16.904Z,19.10
2019-03-27T17:52:48.391Z,19.09
2019-03-27T17:55:20.458Z,19.22
2019-03-27T17:57:51.181Z,19.24
2019-03-27T18:00:52.890Z,19.09
2019-03-27T18:03:23.550Z,19.12
2019-03-27T18:05:54.623Z,19.07
2019-03-27T18:08:25.342Z,18.97
2019-03-27T18:10:57.095Z,18.71
2019-03-27T18:13:27.821Z,18.86
2019-03-27T18:15:58.563Z,18.89
2019-03-27T18:18:29.291Z,18.85
2019-03-27T18:21:00.469Z,18.80
2019-03-27T18:23:44.801Z,18.74
2019-03-27T18:26:04.300Z,18.84
2019-03-27T18:28:34.998Z,18.81
2019-03-27T18:31:06.266Z,18.79
2019-03-27T18:33:36.947Z,18.80
2019-03-27T18:36:08.107Z,18.80
2019-03-27T18:38:38.807Z,18.66
2019-03-27T18:41:10.662Z,18.49
2019-03-27T18:43:41.380Z,18.57
2019-03-27T18:46:12.231Z,18.63
2019-03-27T18:48:42.994Z,18.65
2019-03-27T18:51:14.290Z,18.54
2019-03-27T18:53:58.482Z,18.58
2019-03-27T18:56:19.172Z,18.61
2019-03-27T18:58:49.912Z,18.54
2019-03-27T19:01:21.155Z,18.57
2019-03-27T19:03:51.935Z,18.36
2019-03-27T19:06:22.699Z,18.35
2019-03-27T19:08:53.428Z,18.45
2019-03-27T19:11:26.055Z,18.36
2019-03-27T19:13:56.764Z,18.41
2019-03-27T19:16:27.698Z,18.42
2019-03-27T19:18:58.402Z,18.31
2019-03-27T19:21:29.727Z,18.34
2019-03-27T19:24:13.327Z,18.39
2019-03-27T19:26:33.698Z,18.21
2019-03-27T19:29:04.434Z,18.34
2019-03-27T19:31:35.697Z,18.36
2019-03-27T19:34:06.434Z,18.23
2019-03-27T19:36:37.592Z,18.29
2019-03-27T19:39:09.013Z,18.34
2019-03-27T19:41:40.296Z,18.34
2019-03-27T19:44:11.038Z,18.31
2019-03-27T19:46:41.875Z,18.29
2019-03-27T19:49:12.589Z,18.04
2019-03-27T19:51:43.875Z,18.24
2019-03-27T19:54:26.633Z,18.25
2019-03-27T19:56:48.606Z,18.18
2019-03-27T19:59:19.309Z,18.22
2019-03-27T20:01:50.685Z,18.20
2019-03-27T20:04:21.960Z,18.21
2019-03-27T20:06:53.086Z,18.22
2019-03-27T20:09:23.824Z,18.02
2019-03-27T20:11:56.402Z,18.13
2019-03-27T20:14:27.151Z,18.13
2019-03-27T20:16:57.962Z,18.12
2019-03-27T20:19:28.685Z,18.13
2019-03-27T20:21:59.957Z,18.10
2019-03-27T20:24:40.383Z,18.07
2019-03-27T20:27:04.183Z,18.12
2019-03-27T20:29:35.013Z,18.12
2019-03-27T20:34:41.977Z,18.11
2019-03-27T20:37:12.864Z,18.04
2019-03-27T20:39:43.602Z,18.05
2019-03-27T20:42:15.462Z,18.02
2019-03-27T20:44:46.638Z,17.97
2019-03-27T20:47:17.350Z,17.99
2019-03-27T20:49:49.359Z,18.01
2019-03-27T20:52:20.432Z,17.97
2019-03-27T20:54:55.279Z,17.97
2019-03-27T20:57:24.793Z,17.98
2019-03-27T20:59:55.550Z,17.92
2019-03-27T21:02:26.243Z,17.94
2019-03-27T21:04:57.816Z,17.95
2019-03-27T21:07:29.092Z,17.97
2019-03-27T21:09:59.897Z,17.94
2019-03-27T21:12:30.638Z,17.61
2019-03-27T21:15:04.144Z,17.78
2019-03-27T21:17:45.243Z,17.79
2019-03-27T21:20:17.079Z,17.85
2019-03-27T21:22:52.285Z,17.85
2019-03-27T21:25:24.655Z,17.81
2019-03-27T21:27:56.386Z,17.86
2019-03-27T21:30:28.896Z,17.86
2019-03-27T21:33:03.739Z,17.76
2019-03-27T21:35:35.858Z,17.78
2019-03-27T21:38:13.778Z,17.53
2019-03-27T21:40:46.310Z,17.64
2019-03-27T21:43:20.621Z,17.66
2019-03-27T21:45:54.275Z,17.73
2019-03-27T21:48:32.542Z,17.75
2019-03-27T21:51:04.385Z,17.74
2019-03-27T21:53:37.289Z,17.72
2019-03-27T21:56:13.007Z,17.60
2019-03-27T21:58:45.075Z,17.46
2019-03-27T22:01:16.119Z,17.36
2019-03-27T22:03:48.734Z,17.36
2019-03-27T22:06:19.966Z,17.32
2019-03-27T22:08:50.770Z,17.30
2019-03-27T22:11:21.517Z,17.30
2019-03-27T22:13:53.283Z,17.32
2019-03-27T22:16:24.484Z,17.29
2019-03-27T22:18:57.426Z,17.20
2019-03-27T22:21:29.743Z,17.10
2019-03-27T22:24:02.609Z,17.05
2019-03-27T22:26:34.138Z,16.98
2019-03-27T22:29:06.265Z,17.01
2019-03-27T22:31:38.996Z,17.07
2019-03-27T22:34:13.323Z,16.73
2019-03-27T22:36:45.024Z,16.78
2019-03-27T22:39:17.048Z,16.98
2019-03-27T22:41:51.551Z,17.03
2019-03-27T22:44:24.262Z,17.03
2019-03-27T22:46:57.131Z,16.91
2019-03-27T22:49:30.075Z,17.01
2019-03-27T22:52:03.433Z,17.03
2019-03-27T22:54:36.047Z,17.02
2019-03-27T22:57:07.472Z,16.93
2019-03-27T22:59:39.206Z,17.04
2019-03-27T23:02:11.419Z,17.05
2019-03-27T23:04:45.844Z,17.09
2019-03-27T23:07:18.481Z,17.09
2019-03-27T23:09:49.958Z,16.89
2019-03-27T23:12:21.999Z,16.93
2019-03-27T23:14:54.362Z,16.52
2019-03-27T23:17:32.825Z,16.87
2019-03-27T23:20:07.114Z,16.82
2019-03-27T23:22:40.954Z,16.65
2019-03-27T23:25:15.546Z,16.86
2019-03-27T23:27:50.773Z,16.89
2019-03-27T23:30:23.469Z,16.78
2019-03-27T23:32:55.507Z,16.70
2019-03-27T23:35:32.415Z,16.58
2019-03-27T23:38:09.446Z,16.63
2019-03-27T23:40:47.537Z,16.65
2019-03-27T23:43:20.734Z,16.73
2019-03-27T23:45:54.041Z,16.74
2019-03-27T23:48:26.624Z,16.79
2019-03-27T23:50:58.879Z,16.72
2019-03-27T23:53:30.667Z,16.37
2019-03-27T23:56:15.871Z,16.38
2019-03-27T23:58:38.137Z,16.22
